sensor_id;sensor_type;location;lat;lon;timestamp;P1;durP1;ratioP1;P2;durP2;ratioP2
16119;SDS011;12670;53.502;10.252;2023-08-20T00:01:46;11.45;;;4.22;;
16119;SDS011;12670;53.502;10.252;2023-08-20T00:04:54;12.30;;;4.40;;
16119;SDS011;12670;53.502;10.252;2023-08-20T00:08:01;14.18;;;4.70;;
16119;SDS011;12670;53.502;10.252;2023-08-20T00:11:03;14.65;;;4.70;;
16119;SDS011;12670;53.502;10.252;2023-08-20T00:14:07;12.38;;;4.70;;
16119;SDS011;12670;53.502;10.252;2023-08-20T00:17:09;15.18;;;4.45;;
16119;SDS011;12670;53.502;10.252;2023-08-20T00:20:13;9.73;;;4.30;;
16119;SDS011;12670;53.502;10.252;2023-08-20T00:23:19;10.52;;;4.35;;
16119;SDS011;12670;53.502;10.252;2023-08-20T00:26:22;10.90;;;4.25;;
16119;SDS011;12670;53.502;10.252;2023-08-20T00:29:25;15.20;;;4.78;;
16119;SDS011;12670;53.502;10.252;2023-08-20T00:32:28;12.00;;;4.20;;
16119;SDS011;12670;53.502;10.252;2023-08-20T00:35:31;10.80;;;3.90;;
16119;SDS011;12670;53.502;10.252;2023-08-20T00:38:35;11.63;;;4.30;;
16119;SDS011;12670;53.502;10.252;2023-08-20T00:41:38;11.00;;;4.70;;
16119;SDS011;12670;53.502;10.252;2023-08-20T00:44:40;18.50;;;4.97;;
16119;SDS011;12670;53.502;10.252;2023-08-20T00:47:45;12.17;;;4.83;;
16119;SDS011;12670;53.502;10.252;2023-08-20T00:50:48;14.23;;;5.03;;
16119;SDS011;12670;53.502;10.252;2023-08-20T00:53:52;14.57;;;4.50;;
16119;SDS011;12670;53.502;10.252;2023-08-20T00:56:55;13.27;;;4.93;;
16119;SDS011;12670;53.502;10.252;2023-08-20T00:59:58;18.10;;;5.67;;
16119;SDS011;12670;53.502;10.252;2023-08-20T01:03:01;19.00;;;5.30;;
16119;SDS011;12670;53.502;10.252;2023-08-20T01:06:12;11.53;;;4.53;;
16119;SDS011;12670;53.502;10.252;2023-08-20T01:09:26;17.20;;;5.30;;
16119;SDS011;12670;53.502;10.252;2023-08-20T01:12:33;13.03;;;4.70;;
16119;SDS011;12670;53.502;10.252;2023-08-20T01:15:37;14.10;;;5.17;;
16119;SDS011;12670;53.502;10.252;2023-08-20T01:18:39;11.90;;;5.27;;
16119;SDS011;12670;53.502;10.252;2023-08-20T01:21:44;21.93;;;5.33;;
16119;SDS011;12670;53.502;10.252;2023-08-20T01:25:03;14.47;;;5.23;;
16119;SDS011;12670;53.502;10.252;2023-08-20T01:28:19;13.10;;;4.90;;
16119;SDS011;12670;53.502;10.252;2023-08-20T01:31:24;12.13;;;5.10;;
16119;SDS011;12670;53.502;10.252;2023-08-20T01:34:29;17.33;;;5.20;;
16119;SDS011;12670;53.502;10.252;2023-08-20T01:37:31;11.30;;;5.23;;
16119;SDS011;12670;53.502;10.252;2023-08-20T01:40:34;10.10;;;5.27;;
16119;SDS011;12670;53.502;10.252;2023-08-20T01:43:38;11.40;;;5.10;;
16119;SDS011;12670;53.502;10.252;2023-08-20T01:46:41;17.40;;;5.30;;
16119;SDS011;12670;53.502;10.252;2023-08-20T01:49:44;15.17;;;5.20;;
16119;SDS011;12670;53.502;10.252;2023-08-20T01:52:46;16.10;;;4.90;;
16119;SDS011;12670;53.502;10.252;2023-08-20T01:55:49;13.17;;;5.90;;
16119;SDS011;12670;53.502;10.252;2023-08-20T01:58:53;16.83;;;5.03;;
16119;SDS011;12670;53.502;10.252;2023-08-20T02:01:56;14.10;;;5.10;;
16119;SDS011;12670;53.502;10.252;2023-08-20T02:04:59;14.03;;;4.70;;
16119;SDS011;12670;53.502;10.252;2023-08-20T02:08:01;13.77;;;4.77;;
16119;SDS011;12670;53.502;10.252;2023-08-20T02:11:04;12.93;;;4.43;;
16119;SDS011;12670;53.502;10.252;2023-08-20T02:14:08;14.73;;;4.90;;
16119;SDS011;12670;53.502;10.252;2023-08-20T02:17:11;17.67;;;6.00;;
16119;SDS011;12670;53.502;10.252;2023-08-20T02:20:14;14.17;;;5.20;;
16119;SDS011;12670;53.502;10.252;2023-08-20T02:23:16;14.77;;;5.27;;
16119;SDS011;12670;53.502;10.252;2023-08-20T02:26:19;17.33;;;5.63;;
16119;SDS011;12670;53.502;10.252;2023-08-20T02:29:23;10.97;;;5.00;;
16119;SDS011;12670;53.502;10.252;2023-08-20T02:32:26;14.03;;;5.43;;
16119;SDS011;12670;53.502;10.252;2023-08-20T02:35:28;12.73;;;5.53;;
16119;SDS011;12670;53.502;10.252;2023-08-20T02:38:32;12.57;;;4.50;;
16119;SDS011;12670;53.502;10.252;2023-08-20T02:41:35;17.40;;;5.50;;
16119;SDS011;12670;53.502;10.252;2023-08-20T02:44:39;20.27;;;5.77;;
16119;SDS011;12670;53.502;10.252;2023-08-20T02:47:42;13.57;;;5.57;;
16119;SDS011;12670;53.502;10.252;2023-08-20T02:50:45;15.20;;;5.93;;
16119;SDS011;12670;53.502;10.252;2023-08-20T02:53:47;14.47;;;5.77;;
16119;SDS011;12670;53.502;10.252;2023-08-20T02:56:50;14.20;;;5.50;;
16119;SDS011;12670;53.502;10.252;2023-08-20T02:59:54;12.17;;;5.43;;
16119;SDS011;12670;53.502;10.252;2023-08-20T03:02:57;11.20;;;5.33;;
16119;SDS011;12670;53.502;10.252;2023-08-20T03:06:00;11.23;;;5.60;;
16119;SDS011;12670;53.502;10.252;2023-08-20T03:09:03;15.17;;;5.73;;
16119;SDS011;12670;53.502;10.252;2023-08-20T03:12:07;14.40;;;6.47;;
16119;SDS011;12670;53.502;10.252;2023-08-20T03:15:11;10.33;;;5.53;;
16119;SDS011;12670;53.502;10.252;2023-08-20T03:18:14;15.17;;;6.57;;
16119;SDS011;12670;53.502;10.252;2023-08-20T03:21:16;14.87;;;6.07;;
16119;SDS011;12670;53.502;10.252;2023-08-20T03:24:19;14.87;;;6.80;;
16119;SDS011;12670;53.502;10.252;2023-08-20T03:27:22;24.53;;;6.63;;
16119;SDS011;12670;53.502;10.252;2023-08-20T03:30:26;25.33;;;11.27;;
16119;SDS011;12670;53.502;10.252;2023-08-20T03:33:28;31.43;;;10.97;;
16119;SDS011;12670;53.502;10.252;2023-08-20T03:36:31;26.03;;;10.77;;
16119;SDS011;12670;53.502;10.252;2023-08-20T03:39:34;27.70;;;11.73;;
16119;SDS011;12670;53.502;10.252;2023-08-20T03:42:37;26.13;;;11.33;;
16119;SDS011;12670;53.502;10.252;2023-08-20T03:45:41;25.30;;;11.70;;
16119;SDS011;12670;53.502;10.252;2023-08-20T03:48:44;23.80;;;10.73;;
16119;SDS011;12670;53.502;10.252;2023-08-20T03:51:46;21.40;;;10.10;;
16119;SDS011;12670;53.502;10.252;2023-08-20T03:54:49;19.07;;;10.13;;
16119;SDS011;12670;53.502;10.252;2023-08-20T03:57:52;20.83;;;10.60;;
16119;SDS011;12670;53.502;10.252;2023-08-20T04:00:56;17.73;;;10.47;;
16119;SDS011;12670;53.502;10.252;2023-08-20T04:03:59;19.17;;;10.47;;
16119;SDS011;12670;53.502;10.252;2023-08-20T04:07:02;19.67;;;10.50;;
16119;SDS011;12670;53.502;10.252;2023-08-20T04:10:07;22.53;;;10.30;;
16119;SDS011;12670;53.502;10.252;2023-08-20T04:13:10;17.13;;;9.60;;
16119;SDS011;12670;53.502;10.252;2023-08-20T04:16:16;16.57;;;8.73;;
16119;SDS011;12670;53.502;10.252;2023-08-20T04:19:18;22.10;;;11.37;;
16119;SDS011;12670;53.502;10.252;2023-08-20T04:22:21;16.33;;;8.27;;
16119;SDS011;12670;53.502;10.252;2023-08-20T04:25:24;26.90;;;14.80;;
16119;SDS011;12670;53.502;10.252;2023-08-20T04:28:26;16.00;;;9.07;;
16119;SDS011;12670;53.502;10.252;2023-08-20T04:31:30;19.53;;;9.60;;
16119;SDS011;12670;53.502;10.252;2023-08-20T04:34:33;17.53;;;8.13;;
16119;SDS011;12670;53.502;10.252;2023-08-20T04:37:36;36.13;;;17.00;;
16119;SDS011;12670;53.502;10.252;2023-08-20T04:40:39;16.90;;;8.10;;
16119;SDS011;12670;53.502;10.252;2023-08-20T04:43:42;14.13;;;8.07;;
16119;SDS011;12670;53.502;10.252;2023-08-20T04:46:46;22.97;;;9.20;;
16119;SDS011;12670;53.502;10.252;2023-08-20T04:49:48;26.57;;;8.73;;
16119;SDS011;12670;53.502;10.252;2023-08-20T04:52:51;19.20;;;9.70;;
16119;SDS011;12670;53.502;10.252;2023-08-20T04:55:54;11.67;;;7.40;;
16119;SDS011;12670;53.502;10.252;2023-08-20T04:58:56;25.50;;;8.50;;
16119;SDS011;12670;53.502;10.252;2023-08-20T05:02:00;18.40;;;9.03;;
16119;SDS011;12670;53.502;10.252;2023-08-20T05:05:03;15.37;;;8.03;;
16119;SDS011;12670;53.502;10.252;2023-08-20T05:08:06;19.80;;;7.93;;
16119;SDS011;12670;53.502;10.252;2023-08-20T05:11:10;14.13;;;7.57;;
16119;SDS011;12670;53.502;10.252;2023-08-20T05:14:13;11.53;;;7.17;;
16119;SDS011;12670;53.502;10.252;2023-08-20T05:17:17;14.27;;;7.90;;
16119;SDS011;12670;53.502;10.252;2023-08-20T05:20:19;10.63;;;6.63;;
16119;SDS011;12670;53.502;10.252;2023-08-20T05:23:22;13.13;;;8.20;;
16119;SDS011;12670;53.502;10.252;2023-08-20T05:26:25;12.47;;;8.17;;
16119;SDS011;12670;53.502;10.252;2023-08-20T05:29:27;12.27;;;7.60;;
16119;SDS011;12670;53.502;10.252;2023-08-20T05:32:31;12.13;;;7.33;;
16119;SDS011;12670;53.502;10.252;2023-08-20T05:35:34;37.60;;;8.20;;
16119;SDS011;12670;53.502;10.252;2023-08-20T05:38:37;13.30;;;7.77;;
16119;SDS011;12670;53.502;10.252;2023-08-20T05:41:40;16.13;;;9.03;;
16119;SDS011;12670;53.502;10.252;2023-08-20T05:44:42;17.10;;;10.67;;
16119;SDS011;12670;53.502;10.252;2023-08-20T05:47:46;26.07;;;13.27;;
16119;SDS011;12670;53.502;10.252;2023-08-20T05:50:49;56.90;;;27.10;;
16119;SDS011;12670;53.502;10.252;2023-08-20T05:53:52;59.20;;;28.53;;
16119;SDS011;12670;53.502;10.252;2023-08-20T05:56:56;60.03;;;27.93;;
16119;SDS011;12670;53.502;10.252;2023-08-20T05:59:59;48.97;;;25.07;;
16119;SDS011;12670;53.502;10.252;2023-08-20T06:03:04;34.33;;;18.40;;
16119;SDS011;12670;53.502;10.252;2023-08-20T06:06:08;37.40;;;19.30;;
16119;SDS011;12670;53.502;10.252;2023-08-20T06:09:11;36.70;;;18.77;;
16119;SDS011;12670;53.502;10.252;2023-08-20T06:12:14;40.83;;;19.63;;
16119;SDS011;12670;53.502;10.252;2023-08-20T06:15:17;54.97;;;26.20;;
16119;SDS011;12670;53.502;10.252;2023-08-20T06:18:21;61.57;;;28.90;;
16119;SDS011;12670;53.502;10.252;2023-08-20T06:21:24;63.37;;;30.07;;
16119;SDS011;12670;53.502;10.252;2023-08-20T06:24:26;60.97;;;29.90;;
16119;SDS011;12670;53.502;10.252;2023-08-20T06:27:29;61.17;;;31.13;;
16119;SDS011;12670;53.502;10.252;2023-08-20T06:30:32;57.70;;;28.07;;
16119;SDS011;12670;53.502;10.252;2023-08-20T06:33:36;48.63;;;25.03;;
16119;SDS011;12670;53.502;10.252;2023-08-20T06:36:39;49.23;;;24.83;;
16119;SDS011;12670;53.502;10.252;2023-08-20T06:39:42;55.23;;;24.40;;
16119;SDS011;12670;53.502;10.252;2023-08-20T06:42:45;48.20;;;24.00;;
16119;SDS011;12670;53.502;10.252;2023-08-20T06:45:47;50.50;;;24.27;;
16119;SDS011;12670;53.502;10.252;2023-08-20T06:48:51;51.17;;;23.53;;
16119;SDS011;12670;53.502;10.252;2023-08-20T06:51:54;57.50;;;25.60;;
16119;SDS011;12670;53.502;10.252;2023-08-20T06:54:56;46.80;;;23.37;;
16119;SDS011;12670;53.502;10.252;2023-08-20T06:57:59;49.17;;;23.10;;
16119;SDS011;12670;53.502;10.252;2023-08-20T07:01:02;54.90;;;26.47;;
16119;SDS011;12670;53.502;10.252;2023-08-20T07:04:11;66.27;;;29.63;;
16119;SDS011;12670;53.502;10.252;2023-08-20T07:07:13;60.33;;;29.63;;
16119;SDS011;12670;53.502;10.252;2023-08-20T07:10:17;56.63;;;27.47;;
16119;SDS011;12670;53.502;10.252;2023-08-20T07:13:19;47.97;;;24.40;;
16119;SDS011;12670;53.502;10.252;2023-08-20T07:16:22;47.27;;;22.67;;
16119;SDS011;12670;53.502;10.252;2023-08-20T07:19:26;36.33;;;19.00;;
16119;SDS011;12670;53.502;10.252;2023-08-20T07:22:29;33.90;;;17.33;;
16119;SDS011;12670;53.502;10.252;2023-08-20T07:25:32;27.43;;;15.00;;
16119;SDS011;12670;53.502;10.252;2023-08-20T07:28:34;41.80;;;20.25;;
16119;SDS011;12670;53.502;10.252;2023-08-20T07:31:51;26.95;;;13.68;;
16119;SDS011;12670;53.502;10.252;2023-08-20T07:34:55;14.85;;;9.25;;
16119;SDS011;12670;53.502;10.252;2023-08-20T07:37:58;11.95;;;8.18;;
16119;SDS011;12670;53.502;10.252;2023-08-20T07:41:01;17.05;;;8.88;;
16119;SDS011;12670;53.502;10.252;2023-08-20T07:44:04;19.25;;;11.63;;
16119;SDS011;12670;53.502;10.252;2023-08-20T07:47:07;17.35;;;10.55;;
16119;SDS011;12670;53.502;10.252;2023-08-20T07:50:11;16.77;;;9.57;;
16119;SDS011;12670;53.502;10.252;2023-08-20T07:53:13;17.20;;;8.75;;
16119;SDS011;12670;53.502;10.252;2023-08-20T07:56:16;14.45;;;8.60;;
16119;SDS011;12670;53.502;10.252;2023-08-20T07:59:19;15.15;;;7.13;;
16119;SDS011;12670;53.502;10.252;2023-08-20T08:02:21;16.35;;;8.27;;
16119;SDS011;12670;53.502;10.252;2023-08-20T08:05:25;14.95;;;7.45;;
16119;SDS011;12670;53.502;10.252;2023-08-20T08:08:28;11.90;;;7.18;;
16119;SDS011;12670;53.502;10.252;2023-08-20T08:11:31;17.92;;;7.63;;
16119;SDS011;12670;53.502;10.252;2023-08-20T08:14:33;12.20;;;6.68;;
16119;SDS011;12670;53.502;10.252;2023-08-20T08:17:36;13.48;;;6.85;;
16119;SDS011;12670;53.502;10.252;2023-08-20T08:20:40;13.52;;;6.78;;
16119;SDS011;12670;53.502;10.252;2023-08-20T08:23:43;34.38;;;17.23;;
16119;SDS011;12670;53.502;10.252;2023-08-20T08:26:46;14.32;;;5.90;;
16119;SDS011;12670;53.502;10.252;2023-08-20T08:29:48;14.48;;;6.57;;
16119;SDS011;12670;53.502;10.252;2023-08-20T08:32:52;11.98;;;5.50;;
16119;SDS011;12670;53.502;10.252;2023-08-20T08:35:56;12.20;;;5.28;;
16119;SDS011;12670;53.502;10.252;2023-08-20T08:38:59;10.65;;;5.43;;
16119;SDS011;12670;53.502;10.252;2023-08-20T08:42:02;10.55;;;4.90;;
16119;SDS011;12670;53.502;10.252;2023-08-20T08:45:07;6.80;;;3.85;;
16119;SDS011;12670;53.502;10.252;2023-08-20T08:48:11;9.20;;;4.50;;
16119;SDS011;12670;53.502;10.252;2023-08-20T08:51:16;8.27;;;3.20;;
16119;SDS011;12670;53.502;10.252;2023-08-20T08:54:19;45.58;;;27.80;;
16119;SDS011;12670;53.502;10.252;2023-08-20T08:57:22;8.40;;;3.47;;
16119;SDS011;12670;53.502;10.252;2023-08-20T09:00:25;6.75;;;3.60;;
16119;SDS011;12670;53.502;10.252;2023-08-20T09:03:28;10.98;;;5.30;;
16119;SDS011;12670;53.502;10.252;2023-08-20T09:06:34;7.47;;;3.40;;
16119;SDS011;12670;53.502;10.252;2023-08-20T09:09:46;9.82;;;3.80;;
16119;SDS011;12670;53.502;10.252;2023-08-20T09:12:50;9.45;;;3.53;;
16119;SDS011;12670;53.502;10.252;2023-08-20T09:15:53;7.70;;;3.47;;
16119;SDS011;12670;53.502;10.252;2023-08-20T09:18:58;29.65;;;15.52;;
16119;SDS011;12670;53.502;10.252;2023-08-20T09:22:03;7.05;;;3.35;;
16119;SDS011;12670;53.502;10.252;2023-08-20T09:25:06;19.10;;;11.10;;
16119;SDS011;12670;53.502;10.252;2023-08-20T09:28:09;13.60;;;5.95;;
16119;SDS011;12670;53.502;10.252;2023-08-20T09:31:12;6.53;;;2.78;;
16119;SDS011;12670;53.502;10.252;2023-08-20T09:34:16;8.18;;;3.50;;
16119;SDS011;12670;53.502;10.252;2023-08-20T09:37:20;9.90;;;3.33;;
16119;SDS011;12670;53.502;10.252;2023-08-20T09:40:24;6.28;;;2.30;;
16119;SDS011;12670;53.502;10.252;2023-08-20T09:43:27;5.95;;;2.78;;
16119;SDS011;12670;53.502;10.252;2023-08-20T09:46:33;4.88;;;2.15;;
16119;SDS011;12670;53.502;10.252;2023-08-20T09:49:38;7.50;;;2.20;;
16119;SDS011;12670;53.502;10.252;2023-08-20T09:52:44;9.60;;;2.03;;
16119;SDS011;12670;53.502;10.252;2023-08-20T09:55:56;7.05;;;2.45;;
16119;SDS011;12670;53.502;10.252;2023-08-20T09:59:05;6.38;;;1.92;;
16119;SDS011;12670;53.502;10.252;2023-08-20T10:02:08;7.28;;;1.95;;
16119;SDS011;12670;53.502;10.252;2023-08-20T10:05:16;8.30;;;2.70;;
16119;SDS011;12670;53.502;10.252;2023-08-20T10:08:20;9.98;;;2.50;;
16119;SDS011;12670;53.502;10.252;2023-08-20T10:11:23;8.00;;;2.33;;
16119;SDS011;12670;53.502;10.252;2023-08-20T10:14:25;9.13;;;2.58;;
16119;SDS011;12670;53.502;10.252;2023-08-20T10:17:28;6.45;;;2.45;;
16119;SDS011;12670;53.502;10.252;2023-08-20T10:20:32;4.85;;;2.15;;
16119;SDS011;12670;53.502;10.252;2023-08-20T10:23:36;5.10;;;2.25;;
16119;SDS011;12670;53.502;10.252;2023-08-20T10:26:44;5.30;;;2.58;;
16119;SDS011;12670;53.502;10.252;2023-08-20T10:29:47;9.85;;;2.90;;
16119;SDS011;12670;53.502;10.252;2023-08-20T10:32:51;4.03;;;2.13;;
16119;SDS011;12670;53.502;10.252;2023-08-20T10:35:55;8.88;;;3.50;;
16119;SDS011;12670;53.502;10.252;2023-08-20T10:38:59;6.90;;;2.25;;
16119;SDS011;12670;53.502;10.252;2023-08-20T10:45:28;9.07;;;2.80;;
16119;SDS011;12670;53.502;10.252;2023-08-20T10:48:31;6.18;;;2.53;;
16119;SDS011;12670;53.502;10.252;2023-08-20T10:51:36;6.97;;;2.58;;
16119;SDS011;12670;53.502;10.252;2023-08-20T10:54:42;9.80;;;2.60;;
16119;SDS011;12670;53.502;10.252;2023-08-20T10:57:44;8.80;;;2.60;;
16119;SDS011;12670;53.502;10.252;2023-08-20T11:04:22;9.63;;;2.70;;
16119;SDS011;12670;53.502;10.252;2023-08-20T11:07:28;5.60;;;2.00;;
16119;SDS011;12670;53.502;10.252;2023-08-20T11:10:34;7.40;;;2.67;;
16119;SDS011;12670;53.502;10.252;2023-08-20T11:13:37;10.18;;;2.80;;
16119;SDS011;12670;53.502;10.252;2023-08-20T11:16:40;6.22;;;2.60;;
16119;SDS011;12670;53.502;10.252;2023-08-20T11:19:44;7.55;;;3.42;;
16119;SDS011;12670;53.502;10.252;2023-08-20T11:23:03;7.32;;;2.53;;
16119;SDS011;12670;53.502;10.252;2023-08-20T11:26:08;6.13;;;2.17;;
16119;SDS011;12670;53.502;10.252;2023-08-20T11:29:11;9.52;;;2.63;;
16119;SDS011;12670;53.502;10.252;2023-08-20T11:32:15;6.05;;;2.30;;
16119;SDS011;12670;53.502;10.252;2023-08-20T11:35:17;7.18;;;2.90;;
16119;SDS011;12670;53.502;10.252;2023-08-20T11:38:22;5.90;;;2.08;;
16119;SDS011;12670;53.502;10.252;2023-08-20T11:41:26;10.80;;;3.22;;
16119;SDS011;12670;53.502;10.252;2023-08-20T11:44:41;6.88;;;2.25;;
16119;SDS011;12670;53.502;10.252;2023-08-20T11:47:45;5.20;;;2.25;;
16119;SDS011;12670;53.502;10.252;2023-08-20T11:50:49;6.10;;;2.25;;
16119;SDS011;12670;53.502;10.252;2023-08-20T11:53:52;5.43;;;2.25;;
16119;SDS011;12670;53.502;10.252;2023-08-20T11:57:01;7.70;;;2.00;;
16119;SDS011;12670;53.502;10.252;2023-08-20T12:00:05;5.75;;;1.95;;
16119;SDS011;12670;53.502;10.252;2023-08-20T12:03:11;9.02;;;2.45;;
16119;SDS011;12670;53.502;10.252;2023-08-20T12:06:17;4.88;;;2.15;;
16119;SDS011;12670;53.502;10.252;2023-08-20T12:09:22;5.80;;;2.20;;
16119;SDS011;12670;53.502;10.252;2023-08-20T12:12:26;4.60;;;2.05;;
16119;SDS011;12670;53.502;10.252;2023-08-20T12:15:29;9.65;;;2.10;;
16119;SDS011;12670;53.502;10.252;2023-08-20T12:18:32;6.47;;;2.00;;
16119;SDS011;12670;53.502;10.252;2023-08-20T12:21:34;6.10;;;2.05;;
16119;SDS011;12670;53.502;10.252;2023-08-20T12:24:37;5.75;;;1.95;;
16119;SDS011;12670;53.502;10.252;2023-08-20T12:27:43;7.00;;;2.50;;
16119;SDS011;12670;53.502;10.252;2023-08-20T12:30:46;6.90;;;2.47;;
16119;SDS011;12670;53.502;10.252;2023-08-20T12:33:49;6.95;;;2.20;;
16119;SDS011;12670;53.502;10.252;2023-08-20T12:36:51;6.35;;;2.13;;
16119;SDS011;12670;53.502;10.252;2023-08-20T12:39:54;8.52;;;2.33;;
16119;SDS011;12670;53.502;10.252;2023-08-20T12:42:58;5.20;;;2.00;;
16119;SDS011;12670;53.502;10.252;2023-08-20T12:46:01;4.25;;;2.03;;
16119;SDS011;12670;53.502;10.252;2023-08-20T12:49:04;6.43;;;2.33;;
16119;SDS011;12670;53.502;10.252;2023-08-20T12:52:07;8.65;;;2.00;;
16119;SDS011;12670;53.502;10.252;2023-08-20T12:55:10;4.63;;;2.00;;
16119;SDS011;12670;53.502;10.252;2023-08-20T12:58:14;9.27;;;2.28;;
16119;SDS011;12670;53.502;10.252;2023-08-20T13:01:16;7.00;;;2.30;;
16119;SDS011;12670;53.502;10.252;2023-08-20T13:04:21;9.05;;;2.20;;
16119;SDS011;12670;53.502;10.252;2023-08-20T13:07:24;5.57;;;2.05;;
16119;SDS011;12670;53.502;10.252;2023-08-20T13:10:27;6.35;;;2.20;;
16119;SDS011;12670;53.502;10.252;2023-08-20T13:13:32;8.77;;;2.50;;
16119;SDS011;12670;53.502;10.252;2023-08-20T13:16:36;8.20;;;2.60;;
16119;SDS011;12670;53.502;10.252;2023-08-20T13:19:39;4.72;;;1.90;;
16119;SDS011;12670;53.502;10.252;2023-08-20T13:22:41;9.90;;;2.00;;
16119;SDS011;12670;53.502;10.252;2023-08-20T13:25:45;7.60;;;2.28;;
16119;SDS011;12670;53.502;10.252;2023-08-20T13:28:49;5.55;;;2.15;;
16119;SDS011;12670;53.502;10.252;2023-08-20T13:31:51;6.13;;;1.85;;
16119;SDS011;12670;53.502;10.252;2023-08-20T13:34:54;7.28;;;2.63;;
16119;SDS011;12670;53.502;10.252;2023-08-20T13:37:57;4.97;;;1.80;;
16119;SDS011;12670;53.502;10.252;2023-08-20T13:41:00;6.32;;;2.00;;
16119;SDS011;12670;53.502;10.252;2023-08-20T13:44:04;7.40;;;2.00;;
16119;SDS011;12670;53.502;10.252;2023-08-20T13:47:07;6.80;;;2.38;;
16119;SDS011;12670;53.502;10.252;2023-08-20T13:50:10;5.93;;;2.10;;
16119;SDS011;12670;53.502;10.252;2023-08-20T13:53:12;9.95;;;2.42;;
16119;SDS011;12670;53.502;10.252;2023-08-20T13:56:15;4.60;;;2.00;;
16119;SDS011;12670;53.502;10.252;2023-08-20T13:59:19;6.80;;;2.20;;
16119;SDS011;12670;53.502;10.252;2023-08-20T14:02:22;9.60;;;2.20;;
16119;SDS011;12670;53.502;10.252;2023-08-20T14:05:24;5.00;;;2.20;;
16119;SDS011;12670;53.502;10.252;2023-08-20T14:08:27;5.60;;;2.33;;
16119;SDS011;12670;53.502;10.252;2023-08-20T14:11:30;5.07;;;2.28;;
16119;SDS011;12670;53.502;10.252;2023-08-20T14:14:34;10.80;;;2.40;;
16119;SDS011;12670;53.502;10.252;2023-08-20T14:17:37;5.43;;;2.28;;
16119;SDS011;12670;53.502;10.252;2023-08-20T14:20:39;4.72;;;2.05;;
16119;SDS011;12670;53.502;10.252;2023-08-20T14:23:42;5.07;;;2.17;;
16119;SDS011;12670;53.502;10.252;2023-08-20T14:26:45;5.30;;;1.92;;
16119;SDS011;12670;53.502;10.252;2023-08-20T14:29:49;13.55;;;2.50;;
16119;SDS011;12670;53.502;10.252;2023-08-20T14:32:52;5.22;;;1.70;;
16119;SDS011;12670;53.502;10.252;2023-08-20T14:35:55;6.03;;;2.55;;
16119;SDS011;12670;53.502;10.252;2023-08-20T14:38:57;4.80;;;2.30;;
16119;SDS011;12670;53.502;10.252;2023-08-20T14:42:00;5.72;;;2.25;;
16119;SDS011;12670;53.502;10.252;2023-08-20T14:45:05;6.60;;;2.50;;
16119;SDS011;12670;53.502;10.252;2023-08-20T14:48:08;7.55;;;2.50;;
16119;SDS011;12670;53.502;10.252;2023-08-20T14:51:11;7.15;;;2.30;;
16119;SDS011;12670;53.502;10.252;2023-08-20T14:54:14;6.57;;;2.22;;
16119;SDS011;12670;53.502;10.252;2023-08-20T14:57:16;5.78;;;2.22;;
16119;SDS011;12670;53.502;10.252;2023-08-20T15:00:21;5.50;;;2.28;;
16119;SDS011;12670;53.502;10.252;2023-08-20T15:03:25;7.20;;;2.35;;
16119;SDS011;12670;53.502;10.252;2023-08-20T15:06:27;5.78;;;2.30;;
16119;SDS011;12670;53.502;10.252;2023-08-20T15:09:30;7.22;;;2.00;;
16119;SDS011;12670;53.502;10.252;2023-08-20T15:12:33;5.88;;;2.05;;
16119;SDS011;12670;53.502;10.252;2023-08-20T15:15:37;5.90;;;2.50;;
16119;SDS011;12670;53.502;10.252;2023-08-20T15:18:40;6.75;;;2.10;;
16119;SDS011;12670;53.502;10.252;2023-08-20T15:21:42;6.85;;;2.40;;
16119;SDS011;12670;53.502;10.252;2023-08-20T15:24:45;10.13;;;2.58;;
16119;SDS011;12670;53.502;10.252;2023-08-20T15:27:49;4.60;;;2.03;;
16119;SDS011;12670;53.502;10.252;2023-08-20T15:30:53;9.15;;;2.78;;
16119;SDS011;12670;53.502;10.252;2023-08-20T15:33:56;5.93;;;2.30;;
16119;SDS011;12670;53.502;10.252;2023-08-20T15:36:59;8.30;;;2.30;;
16119;SDS011;12670;53.502;10.252;2023-08-20T15:40:02;15.85;;;4.75;;
16119;SDS011;12670;53.502;10.252;2023-08-20T15:43:10;13.02;;;5.75;;
16119;SDS011;12670;53.502;10.252;2023-08-20T15:46:14;5.00;;;2.58;;
16119;SDS011;12670;53.502;10.252;2023-08-20T15:49:17;4.40;;;2.10;;
16119;SDS011;12670;53.502;10.252;2023-08-20T15:52:19;6.53;;;2.10;;
16119;SDS011;12670;53.502;10.252;2023-08-20T15:55:22;5.43;;;2.03;;
16119;SDS011;12670;53.502;10.252;2023-08-20T15:58:25;3.78;;;1.80;;
16119;SDS011;12670;53.502;10.252;2023-08-20T16:01:29;6.40;;;2.40;;
16119;SDS011;12670;53.502;10.252;2023-08-20T16:04:31;6.00;;;2.40;;
16119;SDS011;12670;53.502;10.252;2023-08-20T16:07:34;8.68;;;2.70;;
16119;SDS011;12670;53.502;10.252;2023-08-20T16:10:37;9.75;;;3.78;;
16119;SDS011;12670;53.502;10.252;2023-08-20T16:13:40;7.32;;;3.20;;
16119;SDS011;12670;53.502;10.252;2023-08-20T16:16:44;8.52;;;2.85;;
16119;SDS011;12670;53.502;10.252;2023-08-20T16:19:47;7.35;;;2.85;;
16119;SDS011;12670;53.502;10.252;2023-08-20T16:22:50;6.82;;;2.42;;
16119;SDS011;12670;53.502;10.252;2023-08-20T16:25:53;9.98;;;3.50;;
16119;SDS011;12670;53.502;10.252;2023-08-20T16:28:55;13.10;;;5.15;;
16119;SDS011;12670;53.502;10.252;2023-08-20T16:32:00;20.80;;;9.10;;
16119;SDS011;12670;53.502;10.252;2023-08-20T16:35:04;9.30;;;4.20;;
16119;SDS011;12670;53.502;10.252;2023-08-20T16:38:07;8.43;;;4.00;;
16119;SDS011;12670;53.502;10.252;2023-08-20T16:41:10;7.38;;;3.47;;
16119;SDS011;12670;53.502;10.252;2023-08-20T16:44:13;8.32;;;3.50;;
16119;SDS011;12670;53.502;10.252;2023-08-20T16:47:18;10.43;;;4.20;;
16119;SDS011;12670;53.502;10.252;2023-08-20T16:50:21;13.23;;;5.65;;
16119;SDS011;12670;53.502;10.252;2023-08-20T16:53:24;5.70;;;2.30;;
16119;SDS011;12670;53.502;10.252;2023-08-20T16:56:26;10.20;;;4.00;;
16119;SDS011;12670;53.502;10.252;2023-08-20T16:59:29;6.05;;;2.95;;
16119;SDS011;12670;53.502;10.252;2023-08-20T17:02:33;11.95;;;3.92;;
16119;SDS011;12670;53.502;10.252;2023-08-20T17:05:37;7.93;;;2.90;;
16119;SDS011;12670;53.502;10.252;2023-08-20T17:08:40;6.78;;;2.50;;
16119;SDS011;12670;53.502;10.252;2023-08-20T17:11:42;12.18;;;4.03;;
16119;SDS011;12670;53.502;10.252;2023-08-20T17:14:45;24.33;;;14.18;;
16119;SDS011;12670;53.502;10.252;2023-08-20T17:17:50;33.47;;;13.68;;
16119;SDS011;12670;53.502;10.252;2023-08-20T17:20:53;10.32;;;5.05;;
16119;SDS011;12670;53.502;10.252;2023-08-20T17:23:56;9.13;;;3.63;;
16119;SDS011;12670;53.502;10.252;2023-08-20T17:27:02;6.40;;;2.63;;
16119;SDS011;12670;53.502;10.252;2023-08-20T17:30:05;5.93;;;2.30;;
16119;SDS011;12670;53.502;10.252;2023-08-20T17:33:13;5.53;;;2.40;;
16119;SDS011;12670;53.502;10.252;2023-08-20T17:36:17;7.53;;;2.33;;
16119;SDS011;12670;53.502;10.252;2023-08-20T17:39:20;3.95;;;1.98;;
16119;SDS011;12670;53.502;10.252;2023-08-20T17:42:23;7.35;;;2.42;;
16119;SDS011;12670;53.502;10.252;2023-08-20T17:45:25;4.95;;;1.90;;
16119;SDS011;12670;53.502;10.252;2023-08-20T17:48:29;2.63;;;1.63;;
16119;SDS011;12670;53.502;10.252;2023-08-20T17:51:32;7.03;;;2.00;;
16119;SDS011;12670;53.502;10.252;2023-08-20T17:54:35;6.65;;;2.08;;
16119;SDS011;12670;53.502;10.252;2023-08-20T17:57:39;5.78;;;1.75;;
16119;SDS011;12670;53.502;10.252;2023-08-20T18:00:43;4.10;;;1.60;;
16119;SDS011;12670;53.502;10.252;2023-08-20T18:03:47;5.32;;;1.83;;
16119;SDS011;12670;53.502;10.252;2023-08-20T18:06:51;5.53;;;1.90;;